createdAt,value
2022-12-04T00:01:27.924Z,66.13
2022-12-04T00:04:00.204Z,58.50
2022-12-04T00:06:28.732Z,61.85
2022-12-04T00:08:56.324Z,58.85
2022-12-04T00:11:29.426Z,55.10
2022-12-04T00:14:03.010Z,56.17
2022-12-04T00:16:33.633Z,56.10
2022-12-04T00:19:00.808Z,57.95
2022-12-04T00:21:28.101Z,60.33
2022-12-04T00:23:55.339Z,59.85
2022-12-04T00:26:27.390Z,57.40
2022-12-04T00:28:55.503Z,58.88
2022-12-04T00:31:28.188Z,55.90
2022-12-04T00:33:56.021Z,56.28
2022-12-04T00:36:27.741Z,62.85
2022-12-04T00:38:55.594Z,55.70
2022-12-04T00:41:27.160Z,60.17
2022-12-04T00:43:54.793Z,59.40
2022-12-04T00:46:23.241Z,53.83
2022-12-04T00:48:51.798Z,57.90
2022-12-04T00:51:24.144Z,52.25
2022-12-04T00:53:52.873Z,59.55
2022-12-04T00:56:25.957Z,59.25
2022-12-04T00:58:57.499Z,53.28
2022-12-04T01:01:26.907Z,61.05
2022-12-04T01:03:56.264Z,64.13
2022-12-04T01:06:29.674Z,58.72
2022-12-04T01:08:58.944Z,63.67
2022-12-04T01:11:28.826Z,61.17
2022-12-04T01:13:57.942Z,57.53
2022-12-04T01:16:43.537Z,56.03
2022-12-04T01:19:12.511Z,63.78
2022-12-04T01:21:40.550Z,63.78
2022-12-04T01:24:08.812Z,63.20
2022-12-04T01:26:36.202Z,58.45
2022-12-04T01:29:04.112Z,57.72
2022-12-04T01:31:31.640Z,62.78
2022-12-04T01:33:59.504Z,59.40
2022-12-04T01:36:28.602Z,61.90
2022-12-04T01:38:57.113Z,64.35
2022-12-04T01:41:30.113Z,64.60
2022-12-04T01:44:24.585Z,63.88
2022-12-04T01:47:01.235Z,65.32
2022-12-04T01:49:46.643Z,66.63
2022-12-04T01:52:24.469Z,66.47
2022-12-04T01:54:59.807Z,59.03
2022-12-04T01:57:31.622Z,55.55
2022-12-04T02:00:08.128Z,55.72
2022-12-04T02:02:40.616Z,62.08
2022-12-04T02:05:15.295Z,58.97
2022-12-04T02:07:45.183Z,59.22
2022-12-04T02:10:13.878Z,61.78
2022-12-04T02:12:56.115Z,62.83
2022-12-04T02:15:43.492Z,59.38
2022-12-04T02:18:41.253Z,63.63
2022-12-04T02:21:20.354Z,61.03
2022-12-04T02:24:33.571Z,56.88
2022-12-04T02:27:18.068Z,64.07
2022-12-04T02:29:54.524Z,61.35
2022-12-04T02:33:08.308Z,60.25
2022-12-04T02:36:13.166Z,59.97
2022-12-04T02:38:53.719Z,69.13
2022-12-04T02:41:35.928Z,67.32
2022-12-04T02:44:49.196Z,62.95
2022-12-04T02:47:24.264Z,59.53
2022-12-04T02:50:00.685Z,64.40
2022-12-04T02:52:41.963Z,63.83
2022-12-04T02:55:24.129Z,61.85
2022-12-04T02:58:09.854Z,63.60
2022-12-04T03:00:38.393Z,58.55
2022-12-04T03:03:24.581Z,61.50
2022-12-04T03:08:51.800Z,55.92
2022-12-04T03:11:19.047Z,62.45
2022-12-04T03:14:02.131Z,58.97
2022-12-04T03:16:40.141Z,55.88
2022-12-04T03:19:29.893Z,56.38
2022-12-04T03:22:03.674Z,55.10
2022-12-04T03:24:54.263Z,53.88
2022-12-04T03:27:54.747Z,54.58
2022-12-04T03:30:23.807Z,61.35
2022-12-04T03:33:19.572Z,54.63
2022-12-04T03:36:08.389Z,55.05
2022-12-04T03:38:58.323Z,55.67
2022-12-04T03:41:55.900Z,57.90
2022-12-04T03:44:40.063Z,56.38
2022-12-04T03:47:58.905Z,55.20
2022-12-04T03:51:27.605Z,51.60
2022-12-04T03:54:11.805Z,61.70
2022-12-04T03:56:55.209Z,60.15
2022-12-04T03:59:44.046Z,58.95
2022-12-04T04:02:18.332Z,56.67
2022-12-04T04:04:54.464Z,57.13
2022-12-04T04:07:35.633Z,61.67
2022-12-04T04:10:16.453Z,52.22
2022-12-04T04:13:21.153Z,53.00
2022-12-04T04:16:14.412Z,50.30
2022-12-04T04:19:01.826Z,51.78
2022-12-04T04:21:54.652Z,53.45
2022-12-04T04:24:48.906Z,50.22
2022-12-04T04:27:16.164Z,55.58
2022-12-04T04:29:51.894Z,50.03
2022-12-04T04:33:12.998Z,55.72
2022-12-04T04:36:01.925Z,51.55
2022-12-04T04:38:55.003Z,46.80
2022-12-04T04:41:41.572Z,46.60
2022-12-04T04:44:30.653Z,52.05
2022-12-04T04:47:06.848Z,46.13
2022-12-04T04:49:37.018Z,49.70
2022-12-04T04:52:04.588Z,49.53
2022-12-04T04:54:33.925Z,43.15
2022-12-04T04:57:01.065Z,44.13
2022-12-04T04:59:28.268Z,49.42
2022-12-04T05:01:56.809Z,44.78
2022-12-04T05:04:24.069Z,43.28
2022-12-04T05:06:51.330Z,44.22
2022-12-04T05:09:18.562Z,48.95
2022-12-04T05:11:45.733Z,42.30
2022-12-04T05:14:12.869Z,46.88
2022-12-04T05:16:41.596Z,42.35
2022-12-04T05:19:27.762Z,38.58
2022-12-04T05:24:22.030Z,38.35
2022-12-04T05:26:49.205Z,36.90
2022-12-04T05:29:16.344Z,34.83
2022-12-04T05:31:43.548Z,31.83
2022-12-04T05:34:10.732Z,37.03
2022-12-04T05:36:37.895Z,31.65
2022-12-04T05:39:05.109Z,27.40
2022-12-04T05:41:32.351Z,30.25
2022-12-04T05:43:59.693Z,23.80
2022-12-04T05:46:26.962Z,27.00
2022-12-04T05:48:54.143Z,29.65
2022-12-04T05:51:21.321Z,29.60
2022-12-04T05:53:51.484Z,24.13
2022-12-04T05:56:18.713Z,23.33
2022-12-04T05:58:45.819Z,22.27
2022-12-04T06:01:21.760Z,22.60
2022-12-04T06:03:49.436Z,16.25
2022-12-04T06:06:24.761Z,16.83
2022-12-04T06:08:57.753Z,19.73
2022-12-04T06:11:35.066Z,18.40
2022-12-04T06:14:06.322Z,18.73
2022-12-04T06:16:43.036Z,19.77
2022-12-04T06:19:16.292Z,20.13
2022-12-04T06:21:48.431Z,20.00
2022-12-04T06:24:24.676Z,21.77
2022-12-04T06:27:26.165Z,22.85
2022-12-04T06:29:45.740Z,27.15
2022-12-04T06:32:17.797Z,23.83
2022-12-04T06:34:54.180Z,22.35
2022-12-04T06:37:24.392Z,22.38
2022-12-04T06:39:51.607Z,23.65
2022-12-04T06:42:18.815Z,25.33
2022-12-04T06:44:46.182Z,25.10
2022-12-04T06:47:13.433Z,23.63
2022-12-04T06:49:40.826Z,29.05
2022-12-04T06:52:08.128Z,25.92
2022-12-04T06:54:35.359Z,26.88
2022-12-04T06:57:02.593Z,25.50
2022-12-04T06:59:30.019Z,25.85
2022-12-04T07:01:57.244Z,28.45
2022-12-04T07:04:24.704Z,25.45
2022-12-04T07:06:51.931Z,26.00
2022-12-04T07:09:19.187Z,28.98
2022-12-04T07:11:46.899Z,33.65
2022-12-04T07:14:14.936Z,35.55
2022-12-04T07:16:42.984Z,33.17
2022-12-04T07:19:13.655Z,34.88
2022-12-04T07:21:41.954Z,34.22
2022-12-04T07:24:15.713Z,36.92
2022-12-04T07:26:43.070Z,39.58
2022-12-04T07:29:10.730Z,38.70
2022-12-04T07:31:38.860Z,37.60
2022-12-04T07:34:06.242Z,30.65
2022-12-04T07:36:33.460Z,32.10
2022-12-04T07:39:00.712Z,31.40
2022-12-04T07:41:27.980Z,29.50
2022-12-04T07:43:55.325Z,30.92
2022-12-04T07:46:27.657Z,26.73
2022-12-04T07:48:57.018Z,28.55
2022-12-04T07:51:28.282Z,29.58
2022-12-04T07:54:03.126Z,26.98
2022-12-04T07:56:32.372Z,26.85
2022-12-04T07:59:00.272Z,29.27
2022-12-04T08:01:27.917Z,31.80
2022-12-04T08:03:58.955Z,29.02
2022-12-04T08:06:29.577Z,36.17
2022-12-04T08:08:57.395Z,30.92
2022-12-04T08:11:28.104Z,36.63
2022-12-04T08:14:06.136Z,34.78
2022-12-04T08:16:33.722Z,37.38
2022-12-04T08:19:01.616Z,32.58
2022-12-04T08:21:31.246Z,36.00
2022-12-04T08:24:00.382Z,36.83
2022-12-04T08:26:30.502Z,35.17
2022-12-04T08:28:58.585Z,34.42
2022-12-04T08:31:30.914Z,42.45
2022-12-04T08:34:02.657Z,41.20
2022-12-04T08:36:30.478Z,36.85
2022-12-04T08:38:57.691Z,34.72
2022-12-04T08:41:26.712Z,34.72
2022-12-04T08:43:56.327Z,37.90
2022-12-04T08:46:25.858Z,31.02
2022-12-04T08:48:55.201Z,37.45
2022-12-04T08:51:27.910Z,35.67
2022-12-04T08:54:03.429Z,35.47
2022-12-04T08:56:32.325Z,36.90
2022-12-04T08:59:00.922Z,35.80
2022-12-04T09:01:30.303Z,34.72
2022-12-04T09:03:58.102Z,35.65
2022-12-04T09:06:25.889Z,30.02
2022-12-04T09:08:55.570Z,30.83
2022-12-04T09:11:27.952Z,28.15
2022-12-04T09:13:55.876Z,28.70
2022-12-04T09:16:26.021Z,31.65
2022-12-04T09:18:54.705Z,29.10
2022-12-04T09:21:24.043Z,29.88
2022-12-04T09:23:51.796Z,23.60
2022-12-04T09:26:29.846Z,27.13
2022-12-04T09:29:01.280Z,26.63
2022-12-04T09:31:29.151Z,24.77
2022-12-04T09:33:59.666Z,29.40
2022-12-04T09:36:27.611Z,36.35
2022-12-04T09:38:55.280Z,35.00
2022-12-04T09:42:00.347Z,40.20
2022-12-04T09:44:36.616Z,32.38
2022-12-04T09:47:23.165Z,37.30
2022-12-04T09:50:31.260Z,26.73
2022-12-04T09:53:09.042Z,21.90
2022-12-04T09:56:12.478Z,24.92
2022-12-04T09:59:06.072Z,27.10
2022-12-04T10:02:24.140Z,26.73
2022-12-04T10:04:51.416Z,26.02
2022-12-04T10:08:02.507Z,30.45
2022-12-04T10:11:04.693Z,33.08
2022-12-04T10:14:14.667Z,28.98
2022-12-04T10:17:57.997Z,35.17
2022-12-04T10:21:00.542Z,37.08
2022-12-04T10:23:50.886Z,37.42
2022-12-04T10:26:23.818Z,37.38
2022-12-04T10:29:02.969Z,36.38
2022-12-04T10:31:32.722Z,30.77
2022-12-04T10:34:16.705Z,35.80
2022-12-04T10:36:53.682Z,36.17
2022-12-04T10:39:28.314Z,41.20
2022-12-04T10:42:37.824Z,35.35
2022-12-04T10:45:07.105Z,38.42
2022-12-04T10:47:35.448Z,41.35
2022-12-04T10:50:20.853Z,36.90
2022-12-04T10:52:48.343Z,31.38
2022-12-04T10:55:16.244Z,38.35
2022-12-04T10:57:46.792Z,38.53
2022-12-04T11:00:36.057Z,39.78
2022-12-04T11:03:23.108Z,39.10
2022-12-04T11:06:06.893Z,37.22
2022-12-04T11:08:44.724Z,43.53
2022-12-04T11:11:15.711Z,43.25
2022-12-04T11:13:43.196Z,46.40
2022-12-04T11:16:46.119Z,44.45
2022-12-04T11:19:33.694Z,44.63
2022-12-04T11:22:16.662Z,43.85
2022-12-04T11:24:55.579Z,45.08
2022-12-04T11:27:32.348Z,45.10
2022-12-04T11:30:13.479Z,43.08
2022-12-04T11:32:42.035Z,43.90
2022-12-04T11:35:28.724Z,46.30
2022-12-04T11:38:15.580Z,40.20
2022-12-04T11:42:27.904Z,38.38
2022-12-04T11:45:02.505Z,41.83
2022-12-04T11:47:33.013Z,40.45
2022-12-04T11:50:48.097Z,39.17
2022-12-04T11:53:42.368Z,43.25
2022-12-04T11:56:42.993Z,41.80
2022-12-04T11:59:49.520Z,37.85
2022-12-04T12:03:09.107Z,39.95
2022-12-04T12:06:07.365Z,38.53
2022-12-04T12:09:03.690Z,40.58
2022-12-04T12:11:52.412Z,41.83
2022-12-04T12:15:12.423Z,45.10
2022-12-04T12:17:59.928Z,44.08
2022-12-04T12:21:06.174Z,42.30
2022-12-04T12:24:15.893Z,41.10
2022-12-04T12:27:33.578Z,40.63
2022-12-04T12:30:21.769Z,40.53
2022-12-04T12:32:58.508Z,45.13
2022-12-04T12:35:55.610Z,45.60
2022-12-04T12:38:32.507Z,46.63
2022-12-04T12:41:17.495Z,46.28
2022-12-04T12:44:19.396Z,43.35
2022-12-04T12:46:56.820Z,45.95
2022-12-04T12:50:14.947Z,38.25
2022-12-04T12:53:02.105Z,37.22
2022-12-04T12:55:43.072Z,36.25
2022-12-04T12:58:53.588Z,36.13
2022-12-04T13:01:44.029Z,34.28
2022-12-04T13:04:40.355Z,27.75
2022-12-04T13:07:47.625Z,32.28
2022-12-04T13:10:41.678Z,31.48
2022-12-04T13:13:22.445Z,30.30
2022-12-04T13:16:15.009Z,29.83
2022-12-04T13:19:07.839Z,28.05
2022-12-04T13:22:17.623Z,29.55
2022-12-04T13:25:08.864Z,25.88
2022-12-04T13:28:00.239Z,24.70
2022-12-04T13:31:45.371Z,30.63
2022-12-04T13:34:52.964Z,29.17
2022-12-04T13:38:31.828Z,29.23
2022-12-04T13:41:07.312Z,31.88
2022-12-04T13:43:48.529Z,30.15
2022-12-04T13:46:39.593Z,30.35
2022-12-04T13:49:19.003Z,29.70
2022-12-04T13:51:50.728Z,33.00
2022-12-04T13:54:17.703Z,29.20
2022-12-04T13:56:57.212Z,27.90
2022-12-04T13:59:28.115Z,32.60
2022-12-04T14:02:06.444Z,29.45
2022-12-04T14:04:53.156Z,27.85
2022-12-04T14:07:34.273Z,26.52
2022-12-04T14:10:25.373Z,25.17
2022-12-04T14:13:20.192Z,22.60
2022-12-04T14:15:48.073Z,27.27
2022-12-04T14:18:28.379Z,23.30
2022-12-04T14:21:04.906Z,21.23
2022-12-04T14:23:42.478Z,21.77
2022-12-04T14:27:10.038Z,21.08
2022-12-04T14:29:27.973Z,20.58
2022-12-04T14:32:00.732Z,17.65
2022-12-04T14:34:33.901Z,15.45
2022-12-04T14:37:05.054Z,21.63
2022-12-04T14:39:45.744Z,18.88
2022-12-04T14:42:38.738Z,20.55
2022-12-04T14:45:24.622Z,20.20
2022-12-04T14:48:34.013Z,22.30
2022-12-04T14:51:38.231Z,22.25
2022-12-04T14:54:35.620Z,20.83
2022-12-04T14:57:49.631Z,22.27
2022-12-04T15:00:24.203Z,20.38
2022-12-04T15:02:59.148Z,22.52
2022-12-04T15:05:30.744Z,21.73
2022-12-04T15:08:03.031Z,23.30
2022-12-04T15:10:53.602Z,24.38
2022-12-04T15:13:33.214Z,24.50
2022-12-04T15:16:13.296Z,26.40
2022-12-04T15:18:40.517Z,24.42
2022-12-04T15:21:10.494Z,21.48
2022-12-04T15:23:41.573Z,23.90
2022-12-04T15:26:17.655Z,27.02
2022-12-04T15:29:01.614Z,23.88
2022-12-04T15:31:37.726Z,25.45
2022-12-04T15:34:15.639Z,26.60
2022-12-04T15:37:06.211Z,26.63
2022-12-04T15:39:35.688Z,26.30
2022-12-04T15:42:24.538Z,27.88
2022-12-04T15:45:07.904Z,25.67
2022-12-04T15:47:42.096Z,28.42
2022-12-04T15:50:21.747Z,28.98
2022-12-04T15:53:06.301Z,26.58
2022-12-04T15:55:48.623Z,26.40
2022-12-04T15:59:00.206Z,37.80
2022-12-04T16:01:38.339Z,34.08
2022-12-04T16:04:05.670Z,32.00
2022-12-04T16:06:34.984Z,35.50
2022-12-04T16:09:17.404Z,35.33
2022-12-04T16:11:44.860Z,37.40
2022-12-04T16:14:11.873Z,33.92
2022-12-04T16:16:46.169Z,32.45
2022-12-04T16:19:33.150Z,37.90
2022-12-04T16:22:23.410Z,36.38
2022-12-04T16:24:51.365Z,33.47
2022-12-04T16:27:23.963Z,31.13
2022-12-04T16:29:52.882Z,31.17
2022-12-04T16:32:27.528Z,33.45
2022-12-04T16:34:55.398Z,31.90
2022-12-04T16:37:24.032Z,36.78
2022-12-04T16:39:51.345Z,30.77
2022-12-04T16:42:28.827Z,34.40
2022-12-04T16:44:56.598Z,34.55
2022-12-04T16:47:24.099Z,39.85
2022-12-04T16:49:53.260Z,36.85
2022-12-04T16:52:21.147Z,35.88
2022-12-04T16:54:48.484Z,35.25
2022-12-04T16:57:15.723Z,37.35
2022-12-04T16:59:42.968Z,34.85
2022-12-04T17:02:26.332Z,38.83
2022-12-04T17:04:57.551Z,41.60
2022-12-04T17:07:25.566Z,40.45
2022-12-04T17:09:52.797Z,42.28
2022-12-04T17:12:20.040Z,44.15
2022-12-04T17:14:47.273Z,43.15
2022-12-04T17:17:14.525Z,43.83
2022-12-04T17:19:41.652Z,42.72
2022-12-04T17:22:08.925Z,43.55
2022-12-04T17:24:37.849Z,44.60
2022-12-04T17:27:07.857Z,45.30
2022-12-04T17:29:35.223Z,45.65
2022-12-04T17:32:02.376Z,49.50
2022-12-04T17:34:29.480Z,49.92
2022-12-04T17:36:56.874Z,52.03
2022-12-04T17:39:24.127Z,48.53
2022-12-04T17:41:51.372Z,49.75
2022-12-04T17:44:18.604Z,51.30
2022-12-04T17:46:45.882Z,52.72
2022-12-04T17:49:13.115Z,48.50
2022-12-04T17:51:40.391Z,48.53
2022-12-04T17:54:08.232Z,53.03
2022-12-04T17:56:35.500Z,49.38
2022-12-04T17:59:04.612Z,52.17
2022-12-04T18:01:32.337Z,51.33
2022-12-04T18:04:04.865Z,51.08
2022-12-04T18:06:42.202Z,44.78
2022-12-04T18:09:14.769Z,58.15
2022-12-04T18:11:47.171Z,52.72
2022-12-04T18:14:22.084Z,54.33
2022-12-04T18:16:53.254Z,53.58
2022-12-04T18:19:23.949Z,47.15
2022-12-04T18:21:51.955Z,45.88
2022-12-04T18:24:19.816Z,45.08
2022-12-04T18:26:51.310Z,46.75
2022-12-04T18:29:27.040Z,47.97
2022-12-04T18:34:23.205Z,54.90
2022-12-04T18:36:50.770Z,53.40
2022-12-04T18:39:25.039Z,50.80
2022-12-04T18:41:56.393Z,55.75
2022-12-04T18:44:25.054Z,54.95
2022-12-04T18:46:53.440Z,49.25
2022-12-04T18:49:20.832Z,48.00
2022-12-04T18:51:50.284Z,52.90
2022-12-04T18:54:23.003Z,50.08
2022-12-04T18:56:53.054Z,51.13
2022-12-04T18:59:26.793Z,54.67
2022-12-04T19:01:55.293Z,58.55
2022-12-04T19:04:25.069Z,63.67
2022-12-04T19:06:56.713Z,58.72
2022-12-04T19:09:54.315Z,54.22
2022-12-04T19:12:16.064Z,65.65
2022-12-04T19:14:43.356Z,73.60
2022-12-04T19:17:11.317Z,65.63
2022-12-04T19:19:38.469Z,64.78
2022-12-04T19:22:05.763Z,59.20
2022-12-04T19:24:32.993Z,64.93
2022-12-04T19:27:01.757Z,64.55
2022-12-04T19:29:29.049Z,62.13
2022-12-04T19:31:59.241Z,66.75
2022-12-04T19:34:27.403Z,73.20
2022-12-04T19:36:55.225Z,71.95
2022-12-04T19:39:22.663Z,76.10
2022-12-04T19:41:49.984Z,67.55
2022-12-04T19:44:47.340Z,71.82
2022-12-04T19:47:04.710Z,67.18
2022-12-04T19:49:31.916Z,70.22
2022-12-04T19:51:59.063Z,73.20
2022-12-04T19:54:27.246Z,74.18
2022-12-04T19:56:54.558Z,76.45
2022-12-04T19:59:21.792Z,74.53
2022-12-04T20:01:49.131Z,73.63
2022-12-04T20:04:16.413Z,75.05
2022-12-04T20:06:46.403Z,76.75
2022-12-04T20:09:20.536Z,83.32
2022-12-04T20:11:48.376Z,73.50
2022-12-04T20:14:15.862Z,82.38
2022-12-04T20:16:43.443Z,82.72
2022-12-04T20:19:16.688Z,81.70
2022-12-04T20:21:45.987Z,76.50
2022-12-04T20:24:17.114Z,78.28
2022-12-04T20:26:46.631Z,86.15
2022-12-04T20:29:18.525Z,81.45
2022-12-04T20:31:47.335Z,78.65
2022-12-04T20:34:18.557Z,79.57
2022-12-04T20:36:48.527Z,78.95
2022-12-04T20:39:18.026Z,81.03
2022-12-04T20:41:45.303Z,78.13
2022-12-04T20:44:18.943Z,76.60
2022-12-04T20:46:47.286Z,72.38
2022-12-04T20:49:22.001Z,76.85
2022-12-04T20:51:51.825Z,82.15
2022-12-04T20:54:23.045Z,77.82
2022-12-04T20:56:52.868Z,80.10
2022-12-04T20:59:23.206Z,77.53
2022-12-04T21:01:52.036Z,73.55
2022-12-04T21:04:20.441Z,78.05
2022-12-04T21:06:48.193Z,71.07
2022-12-04T21:09:23.330Z,73.88
2022-12-04T21:11:54.616Z,74.95
2022-12-04T21:14:49.214Z,75.05
2022-12-04T21:17:19.325Z,66.97
2022-12-04T21:19:50.198Z,74.40
2022-12-04T21:22:19.211Z,79.28
2022-12-04T21:24:47.097Z,74.85
2022-12-04T21:27:20.507Z,73.32
2022-12-04T21:29:49.275Z,72.50
2022-12-04T21:32:19.386Z,78.47
2022-12-04T21:34:46.632Z,73.80
2022-12-04T21:37:14.245Z,79.15
2022-12-04T21:39:42.727Z,79.07
2022-12-04T21:42:36.382Z,80.90
2022-12-04T21:45:07.617Z,79.10
2022-12-04T21:47:36.106Z,76.28
2022-12-04T21:50:05.731Z,76.60
2022-12-04T21:52:32.891Z,88.75
2022-12-04T21:55:00.060Z,86.88
2022-12-04T21:57:28.271Z,93.95
2022-12-04T21:59:55.619Z,101.75
2022-12-04T22:02:23.413Z,104.22
2022-12-04T22:04:50.687Z,102.15
2022-12-04T22:07:17.856Z,107.72
2022-12-04T22:09:45.255Z,100.55
2022-12-04T22:12:41.029Z,96.63
2022-12-04T22:15:00.242Z,107.30
2022-12-04T22:17:30.022Z,91.10
2022-12-04T22:19:57.527Z,97.93
2022-12-04T22:22:25.005Z,94.80
2022-12-04T22:24:52.122Z,94.30
2022-12-04T22:27:19.306Z,89.97
2022-12-04T22:30:02.390Z,87.40
2022-12-04T22:32:31.716Z,91.90
2022-12-04T22:34:58.908Z,89.45
2022-12-04T22:37:26.122Z,95.43
2022-12-04T22:39:53.279Z,84.88
2022-12-04T22:42:20.450Z,90.50
2022-12-04T22:44:47.836Z,85.20
2022-12-04T22:47:15.134Z,87.28
2022-12-04T22:49:42.477Z,95.00
2022-12-04T22:52:09.771Z,88.85
2022-12-04T22:54:36.968Z,93.07
2022-12-04T22:57:04.348Z,91.68
2022-12-04T22:59:31.559Z,89.18
2022-12-04T23:02:00.202Z,98.88
2022-12-04T23:04:28.327Z,92.03
2022-12-04T23:06:55.553Z,96.72
2022-12-04T23:09:22.905Z,106.45
2022-12-04T23:11:55.348Z,101.72
2022-12-04T23:14:24.408Z,103.95
2022-12-04T23:16:51.602Z,102.30
2022-12-04T23:19:20.287Z,100.82
2022-12-04T23:21:55.056Z,108.88
2022-12-04T23:24:25.170Z,105.78
2022-12-04T23:26:52.359Z,104.68
2022-12-04T23:29:44.983Z,101.13
2022-12-04T23:32:06.749Z,98.75
2022-12-04T23:34:33.995Z,106.68
2022-12-04T23:37:01.199Z,103.15
2022-12-04T23:39:28.747Z,107.20
2022-12-04T23:41:55.867Z,98.93
2022-12-04T23:44:23.095Z,107.78
2022-12-04T23:46:50.408Z,100.78
2022-12-04T23:49:17.570Z,100.68
2022-12-04T23:51:44.823Z,100.60
2022-12-04T23:54:12.124Z,106.03
2022-12-04T23:56:39.344Z,110.30
2022-12-04T23:59:06.535Z,103.95
